createdAt,value
2022-12-26T00:00:20.243Z,90.000000
2022-12-26T00:05:22.995Z,90.571429
2022-12-26T00:10:25.840Z,91.000000
2022-12-26T00:15:29.538Z,91.800000
2022-12-26T00:20:30.908Z,92.000000
2022-12-26T00:25:33.303Z,92.000000
2022-12-26T00:30:35.954Z,92.000000
2022-12-26T00:35:18.413Z,92.000000
2022-12-26T00:40:21.629Z,92.000000
2022-12-26T00:45:24.141Z,92.000000
2022-12-26T00:50:32.626Z,92.000000
2022-12-26T00:55:29.354Z,92.000000
2022-12-26T01:00:31.611Z,92.000000
2022-12-26T01:05:34.790Z,92.000000
2022-12-26T01:10:17.147Z,92.000000
2022-12-26T01:15:20.216Z,92.000000
2022-12-26T01:20:22.835Z,92.000000
2022-12-26T01:25:25.409Z,92.000000
2022-12-26T01:30:28.529Z,92.000000
2022-12-26T01:35:30.695Z,92.000000
2022-12-26T01:40:33.745Z,92.000000
2022-12-26T01:45:35.863Z,92.000000
2022-12-26T01:50:18.127Z,92.800000
2022-12-26T01:55:20.984Z,93.000000
2022-12-26T02:00:23.579Z,93.000000
2022-12-26T02:05:25.983Z,93.000000
2022-12-26T02:10:28.806Z,93.000000
2022-12-26T02:15:31.553Z,93.600000
2022-12-26T02:20:34.935Z,94.000000
2022-12-26T02:25:18.568Z,94.000000
2022-12-26T02:30:20.607Z,94.000000
2022-12-26T02:35:24.071Z,94.000000
2022-12-26T02:40:26.604Z,94.000000
2022-12-26T02:45:29.679Z,94.000000
2022-12-26T02:50:33.965Z,94.000000
2022-12-26T02:55:35.491Z,94.000000
2022-12-26T03:00:17.973Z,94.000000
2022-12-26T03:05:20.538Z,94.000000
2022-12-26T03:10:23.602Z,94.571429
2022-12-26T03:15:26.532Z,95.000000
2022-12-26T03:20:29.078Z,95.000000
2022-12-26T03:25:31.637Z,95.000000
2022-12-26T03:30:34.166Z,95.000000
2022-12-26T03:35:16.749Z,95.000000
2022-12-26T03:40:20.962Z,95.000000
2022-12-26T03:45:22.176Z,95.000000
2022-12-26T03:50:24.771Z,95.000000
2022-12-26T03:55:26.979Z,95.000000
2022-12-26T04:00:29.868Z,95.000000
2022-12-26T04:05:32.992Z,95.000000
2022-12-26T04:10:35.542Z,95.000000
2022-12-26T04:15:18.449Z,95.000000
2022-12-26T04:20:22.005Z,95.000000
2022-12-26T04:25:50.098Z,95.000000
2022-12-26T04:30:26.599Z,95.000000
2022-12-26T04:35:29.345Z,95.000000
2022-12-26T04:40:32.370Z,94.666667
2022-12-26T04:45:36.205Z,94.000000
2022-12-26T04:50:17.581Z,94.000000
2022-12-26T04:55:20.391Z,94.000000
2022-12-26T05:00:22.911Z,94.000000
2022-12-26T05:05:25.410Z,94.000000
2022-12-26T05:10:28.149Z,94.000000
2022-12-26T05:15:30.583Z,94.000000
2022-12-26T05:20:34.130Z,94.000000
2022-12-26T05:25:15.996Z,94.000000
2022-12-26T05:30:19.097Z,94.000000
2022-12-26T05:35:22.055Z,94.000000
2022-12-26T05:40:24.309Z,94.000000
2022-12-26T05:45:27.403Z,94.000000
2022-12-26T05:50:29.799Z,94.000000
2022-12-26T05:55:32.682Z,94.333333
2022-12-26T06:00:35.381Z,95.000000
2022-12-26T06:05:17.982Z,95.000000
2022-12-26T06:10:20.568Z,95.000000
2022-12-26T06:15:23.623Z,95.000000
2022-12-26T06:20:26.303Z,95.000000
2022-12-26T06:25:28.900Z,94.933333
2022-12-26T06:30:31.465Z,94.133333
2022-12-26T06:35:34.552Z,94.000000
2022-12-26T06:40:17.269Z,94.000000
2022-12-26T06:45:20.225Z,94.000000
2022-12-26T06:50:23.718Z,94.000000
2022-12-26T06:55:26.344Z,93.866667
2022-12-26T07:00:29.035Z,93.533333
2022-12-26T07:05:32.842Z,93.866667
2022-12-26T07:10:16.496Z,93.533333
2022-12-26T07:15:18.568Z,93.533333
2022-12-26T07:20:21.191Z,94.000000
2022-12-26T07:25:23.741Z,94.000000
2022-12-26T07:30:26.744Z,94.000000
2022-12-26T07:35:29.377Z,94.000000
2022-12-26T07:40:33.057Z,94.066667
2022-12-26T07:45:36.095Z,95.000000
2022-12-26T07:50:17.162Z,95.000000
2022-12-26T07:55:21.028Z,95.000000
2022-12-26T08:00:22.984Z,95.857143
2022-12-26T08:05:25.815Z,96.000000
2022-12-26T08:10:28.311Z,96.000000
2022-12-26T08:15:31.151Z,96.000000
2022-12-26T08:20:34.060Z,96.000000
2022-12-26T08:25:20.007Z,96.000000
2022-12-26T08:30:19.576Z,96.000000
2022-12-26T08:35:22.330Z,96.000000
2022-12-26T08:40:42.082Z,96.000000
2022-12-26T08:45:27.949Z,96.000000
2022-12-26T08:50:32.534Z,96.000000
2022-12-26T08:55:34.556Z,96.000000
2022-12-26T09:00:16.845Z,96.000000
2022-12-26T09:05:19.927Z,96.000000
2022-12-26T09:10:23.011Z,96.000000
2022-12-26T09:15:26.208Z,96.000000
2022-12-26T09:20:28.634Z,96.000000
2022-12-26T09:25:31.413Z,96.000000
2022-12-26T09:30:34.132Z,96.000000
2022-12-26T09:35:16.763Z,95.666667
2022-12-26T09:40:19.259Z,95.000000
2022-12-26T09:45:21.632Z,95.000000
2022-12-26T09:50:24.458Z,95.000000
2022-12-26T09:55:26.931Z,95.000000
2022-12-26T10:00:30.001Z,95.000000
2022-12-26T10:05:33.451Z,95.000000
2022-12-26T10:10:16.550Z,95.000000
2022-12-26T10:15:19.439Z,95.333333
2022-12-26T10:20:21.994Z,96.000000
2022-12-26T10:25:27.526Z,96.000000
2022-12-26T10:30:27.131Z,96.000000
2022-12-26T10:35:29.772Z,96.000000
2022-12-26T10:40:32.508Z,96.000000
2022-12-26T10:45:35.026Z,96.000000
2022-12-26T10:50:20.276Z,96.000000
2022-12-26T10:55:29.373Z,96.000000
2022-12-26T11:00:23.229Z,96.000000
2022-12-26T11:05:48.816Z,96.000000
2022-12-26T11:10:27.689Z,96.000000
2022-12-26T11:15:30.589Z,96.000000
2022-12-26T11:20:34.005Z,96.000000
2022-12-26T11:25:16.647Z,96.000000
2022-12-26T11:30:19.441Z,96.000000
2022-12-26T11:35:21.856Z,96.000000
2022-12-26T11:40:25.335Z,96.285714
2022-12-26T11:45:29.356Z,96.866667
2022-12-26T11:50:31.217Z,97.000000
2022-12-26T11:55:33.786Z,97.000000
2022-12-26T12:00:16.212Z,97.000000
2022-12-26T12:05:19.089Z,97.000000
2022-12-26T12:10:22.169Z,97.000000
2022-12-26T12:15:25.387Z,97.000000
2022-12-26T12:20:27.832Z,97.000000
2022-12-26T12:25:30.559Z,97.000000
2022-12-26T12:30:33.277Z,97.000000
2022-12-26T12:35:36.002Z,97.000000
2022-12-26T12:40:18.387Z,97.000000
2022-12-26T12:45:20.967Z,97.000000
2022-12-26T12:50:23.553Z,97.000000
2022-12-26T12:55:26.303Z,97.000000
2022-12-26T13:00:29.082Z,97.000000
2022-12-26T13:05:32.273Z,97.000000
2022-12-26T13:10:35.256Z,97.000000
2022-12-26T13:15:18.266Z,97.000000
2022-12-26T13:20:20.992Z,97.000000
2022-12-26T13:25:23.602Z,97.000000
2022-12-26T13:30:26.735Z,97.000000
2022-12-26T13:35:29.738Z,97.000000
2022-12-26T13:40:32.727Z,97.000000
2022-12-26T13:45:35.906Z,97.000000
2022-12-26T13:50:18.356Z,97.000000
2022-12-26T13:55:21.483Z,97.000000
2022-12-26T14:00:24.431Z,97.000000
2022-12-26T14:05:27.138Z,97.000000
2022-12-26T14:10:30.599Z,97.000000
2022-12-26T14:15:34.223Z,97.000000
2022-12-26T14:20:16.085Z,97.000000
2022-12-26T14:25:18.724Z,97.000000
2022-12-26T14:30:21.293Z,97.000000
2022-12-26T14:35:24.258Z,97.000000
2022-12-26T14:40:26.403Z,97.000000
2022-12-26T14:45:29.030Z,97.000000
2022-12-26T14:50:32.812Z,97.000000
2022-12-26T14:55:34.278Z,97.000000
2022-12-26T15:00:16.852Z,97.000000
2022-12-26T15:05:19.259Z,97.000000
2022-12-26T15:10:22.125Z,97.000000
2022-12-26T15:15:24.376Z,97.000000
2022-12-26T15:20:27.462Z,97.000000
2022-12-26T15:25:29.490Z,97.000000
2022-12-26T15:30:31.963Z,97.000000
2022-12-26T15:35:34.139Z,97.000000
2022-12-26T15:40:16.968Z,97.000000
2022-12-26T15:45:26.132Z,97.000000
2022-12-26T15:50:22.450Z,97.000000
2022-12-26T15:55:24.858Z,97.000000
2022-12-26T16:00:28.079Z,97.000000
2022-12-26T16:05:31.719Z,97.000000
2022-12-26T16:10:34.830Z,97.000000
2022-12-26T16:15:18.384Z,97.000000
2022-12-26T16:20:20.846Z,97.000000
2022-12-26T16:25:23.515Z,97.000000
2022-12-26T16:30:25.568Z,96.933333
2022-12-26T16:35:29.407Z,96.066667
2022-12-26T16:40:31.331Z,96.000000
2022-12-26T16:45:34.384Z,96.000000
2022-12-26T16:50:16.110Z,95.400000
2022-12-26T16:55:19.642Z,95.000000
2022-12-26T17:00:22.155Z,94.642857
2022-12-26T17:05:24.931Z,93.933333
2022-12-26T17:10:27.378Z,93.000000
2022-12-26T17:15:30.373Z,92.466667
2022-12-26T17:20:33.055Z,91.400000
2022-12-26T17:25:35.298Z,90.466667
2022-12-26T17:30:18.188Z,89.066667
2022-12-26T17:35:20.886Z,88.866667
2022-12-26T17:40:23.357Z,89.000000
2022-12-26T17:45:26.586Z,89.000000
2022-12-26T17:50:29.039Z,88.533333
2022-12-26T17:55:31.650Z,87.733333
2022-12-26T18:00:34.347Z,85.866667
2022-12-26T18:05:16.905Z,83.733333
2022-12-26T18:10:19.618Z,84.466667
2022-12-26T18:15:23.018Z,84.000000
2022-12-26T18:20:25.726Z,84.066667
2022-12-26T18:25:27.935Z,85.000000
2022-12-26T18:30:32.237Z,83.866667
2022-12-26T18:35:34.621Z,82.000000
2022-12-26T18:40:16.170Z,81.000000
2022-12-26T18:45:19.574Z,81.800000
2022-12-26T18:50:24.136Z,82.000000
2022-12-26T18:55:26.086Z,83.400000
2022-12-26T19:00:29.159Z,84.000000
2022-12-26T19:05:32.143Z,82.600000
2022-12-26T19:10:36.301Z,80.400000
2022-12-26T19:15:17.705Z,79.333333
2022-12-26T19:20:20.381Z,78.000000
2022-12-26T19:25:22.706Z,77.000000
2022-12-26T19:30:27.051Z,76.466667
2022-12-26T19:35:28.942Z,76.266667
2022-12-26T19:40:31.392Z,75.133333
2022-12-26T19:45:35.631Z,74.133333
2022-12-26T19:50:17.310Z,71.533333
2022-12-26T19:55:20.055Z,73.133333
2022-12-26T20:00:22.996Z,72.785714
2022-12-26T20:05:27.358Z,71.800000
2022-12-26T20:10:30.275Z,70.933333
2022-12-26T20:15:33.626Z,71.800000
2022-12-26T20:20:17.130Z,71.000000
2022-12-26T20:25:22.080Z,71.800000
2022-12-26T20:30:25.418Z,76.285714
2022-12-26T20:35:28.758Z,80.666667
2022-12-26T20:40:31.591Z,82.000000
2022-12-26T20:45:34.528Z,82.000000
2022-12-26T20:50:16.831Z,81.733333
2022-12-26T20:55:19.603Z,81.666667
2022-12-26T21:00:22.557Z,81.500000
2022-12-26T21:05:25.176Z,81.266667
2022-12-26T21:10:27.719Z,80.533333
2022-12-26T21:15:30.388Z,80.066667
2022-12-26T21:20:33.415Z,80.133333
2022-12-26T21:25:15.977Z,80.933333
2022-12-26T21:30:19.832Z,81.000000
2022-12-26T21:35:21.910Z,81.000000
2022-12-26T21:40:25.868Z,80.500000
2022-12-26T21:45:28.446Z,79.200000
2022-12-26T21:50:32.029Z,79.000000
2022-12-26T21:55:34.147Z,79.000000
2022-12-26T22:00:17.107Z,79.000000
2022-12-26T22:05:20.368Z,80.200000
2022-12-26T22:10:23.256Z,80.642857
2022-12-26T22:15:26.026Z,80.666667
2022-12-26T22:20:28.748Z,80.266667
2022-12-26T22:25:31.506Z,79.933333
2022-12-26T22:30:36.822Z,79.600000
2022-12-26T22:35:18.962Z,79.000000
2022-12-26T22:40:20.385Z,79.000000
2022-12-26T22:45:23.358Z,79.071429
2022-12-26T22:50:25.991Z,80.600000
2022-12-26T22:55:29.734Z,81.666667
2022-12-26T23:00:33.010Z,82.733333
2022-12-26T23:05:36.078Z,84.000000
2022-12-26T23:10:19.572Z,84.133333
2022-12-26T23:15:21.074Z,85.000000
2022-12-26T23:20:24.342Z,85.642857
2022-12-26T23:25:27.079Z,86.000000
2022-12-26T23:30:29.763Z,86.533333
2022-12-26T23:35:32.881Z,87.000000
2022-12-26T23:40:35.901Z,87.533333
2022-12-26T23:45:19.461Z,88.000000
2022-12-26T23:50:22.909Z,88.928571
2022-12-26T23:55:26.325Z,89.000000
